sensor_id;sensor_type;location;lat;lon;timestamp;P1;durP1;ratioP1;P2;durP2;ratioP2
6755;SDS011;3415;51.148;7.014;2022-10-16T06:57:02;5.07;;;1.70;;
6755;SDS011;3415;51.148;7.014;2022-10-16T06:59:29;2.73;;;2.17;;
6755;SDS011;3415;51.148;7.014;2022-10-16T07:01:55;5.73;;;1.80;;
6755;SDS011;3415;51.148;7.014;2022-10-16T07:04:22;2.03;;;1.80;;
6755;SDS011;3415;51.148;7.014;2022-10-16T07:06:49;3.83;;;2.10;;
6755;SDS011;3415;51.148;7.014;2022-10-16T07:09:16;2.70;;;1.77;;
6755;SDS011;3415;51.148;7.014;2022-10-16T07:11:43;2.93;;;2.03;;
6755;SDS011;3415;51.148;7.014;2022-10-16T07:14:15;3.40;;;3.00;;
6755;SDS011;3415;51.148;7.014;2022-10-16T07:16:43;2.50;;;1.70;;
6755;SDS011;3415;51.148;7.014;2022-10-16T07:19:10;2.83;;;2.13;;
6755;SDS011;3415;51.148;7.014;2022-10-16T07:21:39;1.97;;;1.77;;
6755;SDS011;3415;51.148;7.014;2022-10-16T07:24:07;1.90;;;1.50;;
6755;SDS011;3415;51.148;7.014;2022-10-16T07:26:38;3.30;;;1.40;;
6755;SDS011;3415;51.148;7.014;2022-10-16T07:29:06;6.27;;;1.77;;
6755;SDS011;3415;51.148;7.014;2022-10-16T07:31:39;3.17;;;1.80;;
6755;SDS011;3415;51.148;7.014;2022-10-16T07:34:06;1.60;;;1.40;;
6755;SDS011;3415;51.148;7.014;2022-10-16T07:36:33;6.10;;;3.00;;
6755;SDS011;3415;51.148;7.014;2022-10-16T07:39:00;2.30;;;1.70;;
6755;SDS011;3415;51.148;7.014;2022-10-16T07:41:27;4.90;;;2.03;;
6755;SDS011;3415;51.148;7.014;2022-10-16T07:43:55;4.10;;;2.17;;
6755;SDS011;3415;51.148;7.014;2022-10-16T07:46:25;1.90;;;1.70;;
6755;SDS011;3415;51.148;7.014;2022-10-16T07:48:54;3.20;;;2.27;;
6755;SDS011;3415;51.148;7.014;2022-10-16T07:51:22;4.33;;;1.87;;
6755;SDS011;3415;51.148;7.014;2022-10-16T07:53:50;5.30;;;2.13;;
6755;SDS011;3415;51.148;7.014;2022-10-16T07:56:18;2.33;;;1.77;;
6755;SDS011;3415;51.148;7.014;2022-10-16T07:58:45;3.20;;;1.97;;
6755;SDS011;3415;51.148;7.014;2022-10-16T08:01:15;2.13;;;1.70;;
6755;SDS011;3415;51.148;7.014;2022-10-16T08:03:43;3.60;;;1.80;;
6755;SDS011;3415;51.148;7.014;2022-10-16T08:06:11;2.10;;;1.33;;
6755;SDS011;3415;51.148;7.014;2022-10-16T08:08:38;2.07;;;1.40;;
6755;SDS011;3415;51.148;7.014;2022-10-16T08:11:05;1.77;;;1.27;;
6755;SDS011;3415;51.148;7.014;2022-10-16T08:13:33;2.60;;;1.30;;
6755;SDS011;3415;51.148;7.014;2022-10-16T08:16:00;2.60;;;1.47;;
6755;SDS011;3415;51.148;7.014;2022-10-16T08:18:28;4.13;;;1.30;;
6755;SDS011;3415;51.148;7.014;2022-10-16T08:20:55;1.70;;;1.20;;
6755;SDS011;3415;51.148;7.014;2022-10-16T08:23:24;2.00;;;1.10;;
6755;SDS011;3415;51.148;7.014;2022-10-16T08:25:52;2.70;;;1.40;;
6755;SDS011;3415;51.148;7.014;2022-10-16T08:28:19;1.80;;;1.30;;
6755;SDS011;3415;51.148;7.014;2022-10-16T08:30:46;3.40;;;1.30;;
6755;SDS011;3415;51.148;7.014;2022-10-16T08:33:13;4.13;;;1.40;;
6755;SDS011;3415;51.148;7.014;2022-10-16T08:35:40;5.67;;;1.50;;
6755;SDS011;3415;51.148;7.014;2022-10-16T08:38:07;1.30;;;1.00;;
6755;SDS011;3415;51.148;7.014;2022-10-16T08:40:35;3.00;;;1.20;;
6755;SDS011;3415;51.148;7.014;2022-10-16T08:43:10;1.80;;;1.20;;
6755;SDS011;3415;51.148;7.014;2022-10-16T08:46:04;1.83;;;1.00;;
6755;SDS011;3415;51.148;7.014;2022-10-16T08:48:45;2.03;;;0.90;;
6755;SDS011;3415;51.148;7.014;2022-10-16T08:51:18;8.13;;;1.13;;
6755;SDS011;3415;51.148;7.014;2022-10-16T08:53:49;3.27;;;1.00;;
6755;SDS011;3415;51.148;7.014;2022-10-16T08:56:21;3.17;;;1.47;;
6755;SDS011;3415;51.148;7.014;2022-10-16T08:58:48;2.17;;;0.90;;
6755;SDS011;3415;51.148;7.014;2022-10-16T09:01:17;3.40;;;1.43;;
6755;SDS011;3415;51.148;7.014;2022-10-16T09:04:00;1.50;;;1.00;;
6755;SDS011;3415;51.148;7.014;2022-10-16T09:06:40;2.30;;;0.90;;
6755;SDS011;3415;51.148;7.014;2022-10-16T09:09:26;1.47;;;1.00;;
6755;SDS011;3415;51.148;7.014;2022-10-16T09:12:11;1.40;;;0.90;;
6755;SDS011;3415;51.148;7.014;2022-10-16T09:14:50;1.77;;;1.00;;
6755;SDS011;3415;51.148;7.014;2022-10-16T09:17:24;1.17;;;0.90;;
6755;SDS011;3415;51.148;7.014;2022-10-16T09:20:03;3.20;;;1.10;;
6755;SDS011;3415;51.148;7.014;2022-10-16T09:22:51;2.33;;;0.80;;
6755;SDS011;3415;51.148;7.014;2022-10-16T09:25:24;0.90;;;0.80;;
6755;SDS011;3415;51.148;7.014;2022-10-16T09:27:53;1.60;;;0.83;;
6755;SDS011;3415;51.148;7.014;2022-10-16T09:30:20;1.00;;;0.70;;
6755;SDS011;3415;51.148;7.014;2022-10-16T09:32:48;1.87;;;1.07;;
6755;SDS011;3415;51.148;7.014;2022-10-16T09:35:19;1.33;;;1.00;;
6755;SDS011;3415;51.148;7.014;2022-10-16T09:37:49;1.07;;;0.80;;
6755;SDS011;3415;51.148;7.014;2022-10-16T09:40:25;1.30;;;0.90;;
6755;SDS011;3415;51.148;7.014;2022-10-16T09:42:56;3.57;;;1.00;;
6755;SDS011;3415;51.148;7.014;2022-10-16T09:45:28;2.27;;;0.73;;
6755;SDS011;3415;51.148;7.014;2022-10-16T09:47:55;1.20;;;0.97;;
6755;SDS011;3415;51.148;7.014;2022-10-16T09:50:23;1.23;;;0.90;;
6755;SDS011;3415;51.148;7.014;2022-10-16T09:53:02;2.40;;;0.80;;
6755;SDS011;3415;51.148;7.014;2022-10-16T09:55:30;2.37;;;1.40;;
6755;SDS011;3415;51.148;7.014;2022-10-16T09:57:59;1.87;;;0.83;;
6755;SDS011;3415;51.148;7.014;2022-10-16T10:00:25;1.47;;;0.93;;
6755;SDS011;3415;51.148;7.014;2022-10-16T10:02:52;3.17;;;1.17;;
6755;SDS011;3415;51.148;7.014;2022-10-16T10:05:21;1.30;;;0.90;;
6755;SDS011;3415;51.148;7.014;2022-10-16T10:07:53;1.37;;;0.90;;
6755;SDS011;3415;51.148;7.014;2022-10-16T10:10:23;1.77;;;0.77;;
6755;SDS011;3415;51.148;7.014;2022-10-16T10:12:51;3.23;;;1.00;;
6755;SDS011;3415;51.148;7.014;2022-10-16T10:15:20;12.60;;;1.10;;
6755;SDS011;3415;51.148;7.014;2022-10-16T10:17:49;1.03;;;0.70;;
6755;SDS011;3415;51.148;7.014;2022-10-16T10:20:25;1.87;;;1.10;;
6755;SDS011;3415;51.148;7.014;2022-10-16T10:22:53;4.23;;;0.90;;
6755;SDS011;3415;51.148;7.014;2022-10-16T10:25:26;2.90;;;1.00;;
6755;SDS011;3415;51.148;7.014;2022-10-16T10:28:07;1.27;;;0.80;;
6755;SDS011;3415;51.148;7.014;2022-10-16T10:30:50;2.03;;;0.80;;
6755;SDS011;3415;51.148;7.014;2022-10-16T10:33:28;2.70;;;0.90;;
6755;SDS011;3415;51.148;7.014;2022-10-16T10:36:06;3.43;;;1.03;;
6755;SDS011;3415;51.148;7.014;2022-10-16T10:38:45;1.10;;;0.87;;
6755;SDS011;3415;51.148;7.014;2022-10-16T10:44:22;2.13;;;1.00;;
6755;SDS011;3415;51.148;7.014;2022-10-16T10:47:00;2.70;;;0.90;;
6755;SDS011;3415;51.148;7.014;2022-10-16T10:49:37;4.80;;;1.30;;
6755;SDS011;3415;51.148;7.014;2022-10-16T10:52:22;1.70;;;0.97;;
6755;SDS011;3415;51.148;7.014;2022-10-16T10:55:16;1.20;;;0.80;;
6755;SDS011;3415;51.148;7.014;2022-10-16T10:57:57;1.43;;;1.07;;
6755;SDS011;3415;51.148;7.014;2022-10-16T11:00:39;1.77;;;0.97;;
6755;SDS011;3415;51.148;7.014;2022-10-16T11:03:20;6.33;;;1.27;;
6755;SDS011;3415;51.148;7.014;2022-10-16T11:05:58;10.20;;;0.97;;
6755;SDS011;3415;51.148;7.014;2022-10-16T11:08:32;1.20;;;0.87;;
6755;SDS011;3415;51.148;7.014;2022-10-16T11:11:02;4.80;;;1.00;;
6755;SDS011;3415;51.148;7.014;2022-10-16T11:13:32;2.77;;;1.23;;
6755;SDS011;3415;51.148;7.014;2022-10-16T11:16:03;2.80;;;1.30;;
6755;SDS011;3415;51.148;7.014;2022-10-16T11:18:40;2.77;;;1.23;;
6755;SDS011;3415;51.148;7.014;2022-10-16T11:21:13;1.20;;;0.87;;
6755;SDS011;3415;51.148;7.014;2022-10-16T11:23:43;1.57;;;1.10;;
6755;SDS011;3415;51.148;7.014;2022-10-16T11:26:16;1.30;;;0.90;;
6755;SDS011;3415;51.148;7.014;2022-10-16T11:28:47;1.83;;;0.83;;
6755;SDS011;3415;51.148;7.014;2022-10-16T11:31:17;6.40;;;1.10;;
6755;SDS011;3415;51.148;7.014;2022-10-16T11:33:53;1.60;;;1.00;;
6755;SDS011;3415;51.148;7.014;2022-10-16T11:36:28;1.50;;;1.10;;
6755;SDS011;3415;51.148;7.014;2022-10-16T11:39:02;1.10;;;0.80;;
6755;SDS011;3415;51.148;7.014;2022-10-16T11:41:39;1.83;;;0.90;;
6755;SDS011;3415;51.148;7.014;2022-10-16T11:44:17;2.40;;;1.07;;
6755;SDS011;3415;51.148;7.014;2022-10-16T11:46:57;2.57;;;1.00;;
6755;SDS011;3415;51.148;7.014;2022-10-16T11:49:36;2.73;;;1.53;;
6755;SDS011;3415;51.148;7.014;2022-10-16T11:52:07;2.23;;;1.10;;
6755;SDS011;3415;51.148;7.014;2022-10-16T11:54:43;1.30;;;1.17;;
6755;SDS011;3415;51.148;7.014;2022-10-16T11:57:15;3.80;;;2.57;;
6755;SDS011;3415;51.148;7.014;2022-10-16T11:59:46;2.50;;;1.07;;
6755;SDS011;3415;51.148;7.014;2022-10-16T12:02:30;2.53;;;2.20;;
6755;SDS011;3415;51.148;7.014;2022-10-16T12:05:11;4.33;;;1.53;;
6755;SDS011;3415;51.148;7.014;2022-10-16T12:07:46;1.90;;;0.90;;
6755;SDS011;3415;51.148;7.014;2022-10-16T12:10:20;1.83;;;1.10;;
6755;SDS011;3415;51.148;7.014;2022-10-16T12:12:49;1.43;;;1.10;;
6755;SDS011;3415;51.148;7.014;2022-10-16T12:15:20;1.30;;;1.10;;
6755;SDS011;3415;51.148;7.014;2022-10-16T12:17:49;1.23;;;1.10;;
6755;SDS011;3415;51.148;7.014;2022-10-16T12:20:26;2.33;;;1.00;;
6755;SDS011;3415;51.148;7.014;2022-10-16T12:22:57;2.97;;;2.07;;
6755;SDS011;3415;51.148;7.014;2022-10-16T12:25:27;1.33;;;1.03;;
6755;SDS011;3415;51.148;7.014;2022-10-16T12:28:00;2.70;;;1.00;;
6755;SDS011;3415;51.148;7.014;2022-10-16T12:30:29;1.70;;;1.10;;
6755;SDS011;3415;51.148;7.014;2022-10-16T12:32:58;1.73;;;0.80;;
6755;SDS011;3415;51.148;7.014;2022-10-16T12:35:29;1.33;;;0.90;;
6755;SDS011;3415;51.148;7.014;2022-10-16T12:38:08;8.93;;;1.30;;
6755;SDS011;3415;51.148;7.014;2022-10-16T12:40:41;4.63;;;1.17;;
6755;SDS011;3415;51.148;7.014;2022-10-16T12:43:11;3.00;;;1.17;;
6755;SDS011;3415;51.148;7.014;2022-10-16T12:45:58;2.17;;;1.03;;
6755;SDS011;3415;51.148;7.014;2022-10-16T12:48:26;2.03;;;0.90;;
6755;SDS011;3415;51.148;7.014;2022-10-16T12:50:54;1.23;;;0.80;;
6755;SDS011;3415;51.148;7.014;2022-10-16T12:53:22;4.60;;;1.20;;
6755;SDS011;3415;51.148;7.014;2022-10-16T12:55:53;2.17;;;0.90;;
6755;SDS011;3415;51.148;7.014;2022-10-16T12:58:33;1.90;;;0.80;;
6755;SDS011;3415;51.148;7.014;2022-10-16T13:01:16;1.23;;;0.93;;
6755;SDS011;3415;51.148;7.014;2022-10-16T13:06:45;2.30;;;1.00;;
6755;SDS011;3415;51.148;7.014;2022-10-16T13:09:22;3.10;;;0.90;;
6755;SDS011;3415;51.148;7.014;2022-10-16T13:12:18;3.07;;;1.20;;
6755;SDS011;3415;51.148;7.014;2022-10-16T13:15:01;2.23;;;1.27;;
6755;SDS011;3415;51.148;7.014;2022-10-16T13:17:46;3.27;;;1.13;;
6755;SDS011;3415;51.148;7.014;2022-10-16T13:20:21;3.20;;;1.60;;
6755;SDS011;3415;51.148;7.014;2022-10-16T13:22:59;6.93;;;0.90;;
6755;SDS011;3415;51.148;7.014;2022-10-16T13:25:36;4.00;;;1.07;;
6755;SDS011;3415;51.148;7.014;2022-10-16T13:28:11;0.90;;;0.70;;
6755;SDS011;3415;51.148;7.014;2022-10-16T13:30:39;2.80;;;1.00;;
6755;SDS011;3415;51.148;7.014;2022-10-16T13:33:12;0.90;;;0.70;;
6755;SDS011;3415;51.148;7.014;2022-10-16T13:35:47;1.43;;;0.80;;
6755;SDS011;3415;51.148;7.014;2022-10-16T13:38:18;1.50;;;0.90;;
6755;SDS011;3415;51.148;7.014;2022-10-16T13:40:53;1.47;;;0.87;;
6755;SDS011;3415;51.148;7.014;2022-10-16T13:43:22;1.00;;;0.80;;
6755;SDS011;3415;51.148;7.014;2022-10-16T13:45:52;1.67;;;0.80;;
6755;SDS011;3415;51.148;7.014;2022-10-16T13:48:21;1.70;;;0.90;;
6755;SDS011;3415;51.148;7.014;2022-10-16T13:50:57;1.10;;;0.80;;
6755;SDS011;3415;51.148;7.014;2022-10-16T13:53:26;2.80;;;0.97;;
6755;SDS011;3415;51.148;7.014;2022-10-16T13:55:53;2.80;;;1.20;;
6755;SDS011;3415;51.148;7.014;2022-10-16T13:58:20;2.00;;;0.97;;
6755;SDS011;3415;51.148;7.014;2022-10-16T14:00:54;2.80;;;0.80;;
6755;SDS011;3415;51.148;7.014;2022-10-16T14:03:22;2.70;;;1.37;;
6755;SDS011;3415;51.148;7.014;2022-10-16T14:05:51;1.50;;;0.83;;
6755;SDS011;3415;51.148;7.014;2022-10-16T14:08:20;2.50;;;0.80;;
6755;SDS011;3415;51.148;7.014;2022-10-16T14:10:50;1.30;;;0.83;;
6755;SDS011;3415;51.148;7.014;2022-10-16T14:13:24;3.63;;;0.90;;
6755;SDS011;3415;51.148;7.014;2022-10-16T14:15:56;1.57;;;1.17;;
6755;SDS011;3415;51.148;7.014;2022-10-16T14:18:26;1.30;;;1.00;;
6755;SDS011;3415;51.148;7.014;2022-10-16T14:20:54;1.97;;;0.70;;
6755;SDS011;3415;51.148;7.014;2022-10-16T14:23:22;2.13;;;0.87;;
6755;SDS011;3415;51.148;7.014;2022-10-16T14:25:55;2.40;;;1.10;;
6755;SDS011;3415;51.148;7.014;2022-10-16T14:28:32;1.40;;;0.90;;
6755;SDS011;3415;51.148;7.014;2022-10-16T14:30:59;0.90;;;0.80;;
6755;SDS011;3415;51.148;7.014;2022-10-16T14:33:31;1.77;;;0.90;;
6755;SDS011;3415;51.148;7.014;2022-10-16T14:36:01;2.57;;;1.73;;
6755;SDS011;3415;51.148;7.014;2022-10-16T14:38:29;1.77;;;0.90;;
6755;SDS011;3415;51.148;7.014;2022-10-16T14:40:59;2.30;;;1.00;;
6755;SDS011;3415;51.148;7.014;2022-10-16T14:43:29;2.23;;;1.13;;
6755;SDS011;3415;51.148;7.014;2022-10-16T14:45:59;3.20;;;1.00;;
6755;SDS011;3415;51.148;7.014;2022-10-16T14:48:29;1.83;;;1.00;;
6755;SDS011;3415;51.148;7.014;2022-10-16T14:50:56;1.80;;;0.93;;
6755;SDS011;3415;51.148;7.014;2022-10-16T14:53:23;1.20;;;0.80;;
6755;SDS011;3415;51.148;7.014;2022-10-16T14:55:50;1.03;;;0.80;;
6755;SDS011;3415;51.148;7.014;2022-10-16T14:58:19;2.00;;;0.90;;
6755;SDS011;3415;51.148;7.014;2022-10-16T15:00:48;0.97;;;0.70;;
6755;SDS011;3415;51.148;7.014;2022-10-16T15:03:15;2.60;;;0.90;;
6755;SDS011;3415;51.148;7.014;2022-10-16T15:05:42;1.67;;;1.00;;
6755;SDS011;3415;51.148;7.014;2022-10-16T15:08:09;1.80;;;1.10;;
6755;SDS011;3415;51.148;7.014;2022-10-16T15:10:38;9.73;;;1.30;;
6755;SDS011;3415;51.148;7.014;2022-10-16T15:13:08;1.00;;;0.80;;
6755;SDS011;3415;51.148;7.014;2022-10-16T15:15:40;1.30;;;1.07;;
6755;SDS011;3415;51.148;7.014;2022-10-16T15:18:09;1.47;;;0.90;;
6755;SDS011;3415;51.148;7.014;2022-10-16T15:20:37;1.63;;;1.00;;
6755;SDS011;3415;51.148;7.014;2022-10-16T15:23:05;4.47;;;1.10;;
6755;SDS011;3415;51.148;7.014;2022-10-16T15:25:39;3.07;;;0.87;;
6755;SDS011;3415;51.148;7.014;2022-10-16T15:28:09;1.10;;;1.00;;
6755;SDS011;3415;51.148;7.014;2022-10-16T15:30:37;2.23;;;1.00;;
6755;SDS011;3415;51.148;7.014;2022-10-16T15:33:08;1.23;;;0.80;;
6755;SDS011;3415;51.148;7.014;2022-10-16T15:35:39;1.80;;;1.10;;
6755;SDS011;3415;51.148;7.014;2022-10-16T15:38:06;3.80;;;1.10;;
6755;SDS011;3415;51.148;7.014;2022-10-16T15:40:35;1.00;;;0.80;;
6755;SDS011;3415;51.148;7.014;2022-10-16T15:43:02;1.30;;;0.80;;
6755;SDS011;3415;51.148;7.014;2022-10-16T15:45:29;1.30;;;0.93;;
6755;SDS011;3415;51.148;7.014;2022-10-16T15:47:57;1.43;;;1.00;;
6755;SDS011;3415;51.148;7.014;2022-10-16T15:50:24;1.87;;;1.07;;
6755;SDS011;3415;51.148;7.014;2022-10-16T15:52:52;1.10;;;1.00;;
6755;SDS011;3415;51.148;7.014;2022-10-16T15:55:18;1.30;;;1.03;;
6755;SDS011;3415;51.148;7.014;2022-10-16T15:57:45;1.93;;;1.03;;
6755;SDS011;3415;51.148;7.014;2022-10-16T16:00:13;2.90;;;1.10;;
6755;SDS011;3415;51.148;7.014;2022-10-16T16:02:41;3.23;;;1.60;;
6755;SDS011;3415;51.148;7.014;2022-10-16T16:05:10;1.97;;;1.23;;
6755;SDS011;3415;51.148;7.014;2022-10-16T16:07:38;1.53;;;1.20;;
6755;SDS011;3415;51.148;7.014;2022-10-16T16:10:06;1.73;;;1.00;;
6755;SDS011;3415;51.148;7.014;2022-10-16T16:12:35;3.07;;;1.13;;
6755;SDS011;3415;51.148;7.014;2022-10-16T16:15:03;1.93;;;1.07;;
6755;SDS011;3415;51.148;7.014;2022-10-16T16:17:30;2.47;;;1.27;;
6755;SDS011;3415;51.148;7.014;2022-10-16T16:19:58;2.90;;;1.30;;
6755;SDS011;3415;51.148;7.014;2022-10-16T16:22:26;1.30;;;1.10;;
6755;SDS011;3415;51.148;7.014;2022-10-16T16:24:53;1.57;;;1.13;;
6755;SDS011;3415;51.148;7.014;2022-10-16T16:27:20;3.87;;;1.20;;
6755;SDS011;3415;51.148;7.014;2022-10-16T16:29:49;1.50;;;1.03;;
6755;SDS011;3415;51.148;7.014;2022-10-16T16:32:16;1.40;;;1.07;;
6755;SDS011;3415;51.148;7.014;2022-10-16T16:34:43;2.67;;;1.13;;
6755;SDS011;3415;51.148;7.014;2022-10-16T16:37:10;3.87;;;1.30;;
6755;SDS011;3415;51.148;7.014;2022-10-16T16:39:38;1.90;;;1.20;;
6755;SDS011;3415;51.148;7.014;2022-10-16T16:42:05;1.07;;;0.90;;
6755;SDS011;3415;51.148;7.014;2022-10-16T16:44:32;2.40;;;0.97;;
6755;SDS011;3415;51.148;7.014;2022-10-16T16:47:01;2.50;;;1.30;;
6755;SDS011;3415;51.148;7.014;2022-10-16T16:49:28;3.40;;;1.27;;
6755;SDS011;3415;51.148;7.014;2022-10-16T16:51:55;1.10;;;1.00;;
6755;SDS011;3415;51.148;7.014;2022-10-16T16:54:21;1.70;;;1.00;;
6755;SDS011;3415;51.148;7.014;2022-10-16T16:56:50;2.70;;;1.37;;
6755;SDS011;3415;51.148;7.014;2022-10-16T16:59:17;2.03;;;1.13;;
6755;SDS011;3415;51.148;7.014;2022-10-16T17:01:47;1.60;;;1.43;;
6755;SDS011;3415;51.148;7.014;2022-10-16T17:04:14;4.60;;;1.33;;
6755;SDS011;3415;51.148;7.014;2022-10-16T17:06:41;2.63;;;1.00;;
6755;SDS011;3415;51.148;7.014;2022-10-16T17:09:09;1.77;;;1.10;;
6755;SDS011;3415;51.148;7.014;2022-10-16T17:11:38;1.33;;;1.00;;
6755;SDS011;3415;51.148;7.014;2022-10-16T17:14:08;2.60;;;1.03;;
6755;SDS011;3415;51.148;7.014;2022-10-16T17:16:35;1.47;;;1.00;;
6755;SDS011;3415;51.148;7.014;2022-10-16T17:19:05;2.00;;;1.17;;
6755;SDS011;3415;51.148;7.014;2022-10-16T17:21:33;2.17;;;1.20;;
6755;SDS011;3415;51.148;7.014;2022-10-16T17:24:00;3.73;;;2.30;;
6755;SDS011;3415;51.148;7.014;2022-10-16T17:26:27;2.43;;;1.80;;
6755;SDS011;3415;51.148;7.014;2022-10-16T17:28:55;2.20;;;1.60;;
6755;SDS011;3415;51.148;7.014;2022-10-16T17:31:25;2.03;;;1.10;;
6755;SDS011;3415;51.148;7.014;2022-10-16T17:33:53;2.03;;;1.50;;
6755;SDS011;3415;51.148;7.014;2022-10-16T17:36:21;2.37;;;1.80;;
6755;SDS011;3415;51.148;7.014;2022-10-16T17:38:49;2.30;;;1.83;;
6755;SDS011;3415;51.148;7.014;2022-10-16T17:41:17;3.93;;;1.37;;
6755;SDS011;3415;51.148;7.014;2022-10-16T17:43:47;6.00;;;1.80;;
6755;SDS011;3415;51.148;7.014;2022-10-16T17:46:15;11.80;;;2.07;;
6755;SDS011;3415;51.148;7.014;2022-10-16T17:48:44;2.50;;;1.60;;
6755;SDS011;3415;51.148;7.014;2022-10-16T17:51:13;4.50;;;2.60;;
6755;SDS011;3415;51.148;7.014;2022-10-16T17:53:41;3.73;;;2.50;;
6755;SDS011;3415;51.148;7.014;2022-10-16T17:56:09;5.83;;;3.33;;
6755;SDS011;3415;51.148;7.014;2022-10-16T17:58:38;5.70;;;3.43;;
6755;SDS011;3415;51.148;7.014;2022-10-16T18:01:10;8.67;;;3.43;;
6755;SDS011;3415;51.148;7.014;2022-10-16T18:03:38;7.53;;;3.43;;
6755;SDS011;3415;51.148;7.014;2022-10-16T18:06:06;6.57;;;3.17;;
6755;SDS011;3415;51.148;7.014;2022-10-16T18:08:33;4.50;;;2.20;;
6755;SDS011;3415;51.148;7.014;2022-10-16T18:11:01;3.30;;;2.10;;
6755;SDS011;3415;51.148;7.014;2022-10-16T18:13:29;2.40;;;1.77;;
6755;SDS011;3415;51.148;7.014;2022-10-16T18:15:59;2.90;;;1.50;;
6755;SDS011;3415;51.148;7.014;2022-10-16T18:18:26;2.90;;;1.60;;
6755;SDS011;3415;51.148;7.014;2022-10-16T18:20:56;1.63;;;1.27;;
6755;SDS011;3415;51.148;7.014;2022-10-16T18:23:25;5.07;;;1.40;;
6755;SDS011;3415;51.148;7.014;2022-10-16T18:25:53;2.03;;;1.20;;
6755;SDS011;3415;51.148;7.014;2022-10-16T18:28:20;1.60;;;1.20;;
6755;SDS011;3415;51.148;7.014;2022-10-16T18:30:53;5.03;;;1.30;;
6755;SDS011;3415;51.148;7.014;2022-10-16T18:33:21;1.73;;;1.30;;
6755;SDS011;3415;51.148;7.014;2022-10-16T18:35:48;3.40;;;1.40;;
6755;SDS011;3415;51.148;7.014;2022-10-16T18:38:15;5.10;;;1.50;;
6755;SDS011;3415;51.148;7.014;2022-10-16T18:40:43;4.43;;;1.60;;
6755;SDS011;3415;51.148;7.014;2022-10-16T18:43:10;2.20;;;1.50;;
6755;SDS011;3415;51.148;7.014;2022-10-16T18:45:37;2.70;;;1.40;;
6755;SDS011;3415;51.148;7.014;2022-10-16T18:48:04;2.70;;;1.70;;
6755;SDS011;3415;51.148;7.014;2022-10-16T18:50:32;2.03;;;1.30;;
6755;SDS011;3415;51.148;7.014;2022-10-16T18:52:58;2.57;;;1.57;;
6755;SDS011;3415;51.148;7.014;2022-10-16T18:55:25;1.40;;;1.20;;
6755;SDS011;3415;51.148;7.014;2022-10-16T18:57:55;2.00;;;1.17;;
6755;SDS011;3415;51.148;7.014;2022-10-16T19:00:22;1.50;;;1.17;;
6755;SDS011;3415;51.148;7.014;2022-10-16T19:02:49;1.73;;;1.40;;
6755;SDS011;3415;51.148;7.014;2022-10-16T19:05:15;1.70;;;1.30;;
6755;SDS011;3415;51.148;7.014;2022-10-16T19:07:44;1.93;;;1.30;;
6755;SDS011;3415;51.148;7.014;2022-10-16T19:10:12;8.40;;;1.67;;
6755;SDS011;3415;51.148;7.014;2022-10-16T19:12:39;2.50;;;1.30;;
6755;SDS011;3415;51.148;7.014;2022-10-16T19:15:08;2.97;;;1.53;;
6755;SDS011;3415;51.148;7.014;2022-10-16T19:17:35;2.23;;;1.43;;
6755;SDS011;3415;51.148;7.014;2022-10-16T19:20:03;2.80;;;1.57;;
6755;SDS011;3415;51.148;7.014;2022-10-16T19:22:31;2.90;;;1.43;;
6755;SDS011;3415;51.148;7.014;2022-10-16T19:25:16;3.10;;;1.10;;
6755;SDS011;3415;51.148;7.014;2022-10-16T19:27:43;2.60;;;1.57;;
6755;SDS011;3415;51.148;7.014;2022-10-16T19:30:12;2.50;;;1.60;;
6755;SDS011;3415;51.148;7.014;2022-10-16T19:32:38;1.90;;;1.33;;
6755;SDS011;3415;51.148;7.014;2022-10-16T19:35:06;2.20;;;1.50;;
6755;SDS011;3415;51.148;7.014;2022-10-16T19:37:34;2.70;;;1.73;;
6755;SDS011;3415;51.148;7.014;2022-10-16T19:40:01;2.90;;;2.00;;
6755;SDS011;3415;51.148;7.014;2022-10-16T19:42:28;3.17;;;1.63;;
6755;SDS011;3415;51.148;7.014;2022-10-16T19:44:55;6.20;;;1.83;;
6755;SDS011;3415;51.148;7.014;2022-10-16T19:47:23;6.03;;;2.17;;
6755;SDS011;3415;51.148;7.014;2022-10-16T19:49:50;2.23;;;1.67;;
6755;SDS011;3415;51.148;7.014;2022-10-16T19:52:17;1.97;;;1.43;;
6755;SDS011;3415;51.148;7.014;2022-10-16T19:54:46;4.07;;;1.40;;
6755;SDS011;3415;51.148;7.014;2022-10-16T19:57:12;2.90;;;1.60;;
6755;SDS011;3415;51.148;7.014;2022-10-16T19:59:39;2.57;;;1.70;;
6755;SDS011;3415;51.148;7.014;2022-10-16T20:02:08;3.97;;;2.40;;
6755;SDS011;3415;51.148;7.014;2022-10-16T20:04:36;1.73;;;1.53;;
6755;SDS011;3415;51.148;7.014;2022-10-16T20:07:03;1.90;;;1.60;;
6755;SDS011;3415;51.148;7.014;2022-10-16T20:09:31;2.40;;;1.70;;
6755;SDS011;3415;51.148;7.014;2022-10-16T20:11:59;4.00;;;2.70;;
6755;SDS011;3415;51.148;7.014;2022-10-16T20:14:26;7.67;;;4.97;;
6755;SDS011;3415;51.148;7.014;2022-10-16T20:16:53;9.03;;;5.10;;
6755;SDS011;3415;51.148;7.014;2022-10-16T20:19:20;5.60;;;3.53;;
6755;SDS011;3415;51.148;7.014;2022-10-16T20:21:48;2.83;;;1.83;;
6755;SDS011;3415;51.148;7.014;2022-10-16T20:24:15;2.90;;;2.00;;
6755;SDS011;3415;51.148;7.014;2022-10-16T20:26:43;9.83;;;2.80;;
6755;SDS011;3415;51.148;7.014;2022-10-16T20:29:10;2.90;;;2.23;;
6755;SDS011;3415;51.148;7.014;2022-10-16T20:31:37;4.77;;;2.60;;
6755;SDS011;3415;51.148;7.014;2022-10-16T20:34:07;6.40;;;2.40;;
6755;SDS011;3415;51.148;7.014;2022-10-16T20:36:37;13.70;;;3.93;;
6755;SDS011;3415;51.148;7.014;2022-10-16T20:39:07;4.30;;;2.43;;
6755;SDS011;3415;51.148;7.014;2022-10-16T20:41:37;2.93;;;2.10;;
6755;SDS011;3415;51.148;7.014;2022-10-16T20:44:04;4.23;;;1.77;;
6755;SDS011;3415;51.148;7.014;2022-10-16T20:46:31;10.50;;;2.53;;
6755;SDS011;3415;51.148;7.014;2022-10-16T20:48:58;2.50;;;1.60;;
6755;SDS011;3415;51.148;7.014;2022-10-16T20:51:26;2.30;;;1.77;;
6755;SDS011;3415;51.148;7.014;2022-10-16T20:53:54;2.70;;;2.07;;
6755;SDS011;3415;51.148;7.014;2022-10-16T20:56:23;2.60;;;1.90;;
6755;SDS011;3415;51.148;7.014;2022-10-16T20:58:51;2.20;;;2.00;;
6755;SDS011;3415;51.148;7.014;2022-10-16T21:01:18;2.40;;;1.77;;
6755;SDS011;3415;51.148;7.014;2022-10-16T21:03:48;3.00;;;2.20;;
6755;SDS011;3415;51.148;7.014;2022-10-16T21:06:16;5.47;;;2.77;;
6755;SDS011;3415;51.148;7.014;2022-10-16T21:08:43;4.90;;;2.60;;
6755;SDS011;3415;51.148;7.014;2022-10-16T21:11:10;3.23;;;2.23;;
6755;SDS011;3415;51.148;7.014;2022-10-16T21:13:40;3.17;;;2.10;;
6755;SDS011;3415;51.148;7.014;2022-10-16T21:16:07;2.63;;;1.97;;
6755;SDS011;3415;51.148;7.014;2022-10-16T21:18:34;2.90;;;2.17;;
6755;SDS011;3415;51.148;7.014;2022-10-16T21:21:01;2.40;;;2.10;;
6755;SDS011;3415;51.148;7.014;2022-10-16T21:23:29;3.20;;;2.27;;
6755;SDS011;3415;51.148;7.014;2022-10-16T21:25:56;2.97;;;2.10;;
6755;SDS011;3415;51.148;7.014;2022-10-16T21:28:25;4.10;;;2.37;;
6755;SDS011;3415;51.148;7.014;2022-10-16T21:30:54;2.70;;;1.90;;
6755;SDS011;3415;51.148;7.014;2022-10-16T21:33:21;3.97;;;2.80;;
